sensor_id;sensor_type;location;lat;lon;timestamp;temperature;humidity
19435;DHT22;9853;50.848;4.108;2022-08-20T00:01:00;19.10;99.90
19435;DHT22;9853;50.848;4.108;2022-08-20T00:03:24;19.10;99.90
19435;DHT22;9853;50.848;4.108;2022-08-20T00:05:35;19.20;99.90
19435;DHT22;9853;50.848;4.108;2022-08-20T00:07:37;19.20;99.90
19435;DHT22;9853;50.848;4.108;2022-08-20T00:09:38;19.30;99.90
19435;DHT22;9853;50.848;4.108;2022-08-20T00:11:40;19.20;99.90
19435;DHT22;9853;50.848;4.108;2022-08-20T00:13:45;19.30;99.90
19435;DHT22;9853;50.848;4.108;2022-08-20T00:15:46;19.30;99.90
19435;DHT22;9853;50.848;4.108;2022-08-20T00:17:48;19.20;99.90
19435;DHT22;9853;50.848;4.108;2022-08-20T00:19:52;19.20;99.90
19435;DHT22;9853;50.848;4.108;2022-08-20T00:21:53;19.20;99.90
19435;DHT22;9853;50.848;4.108;2022-08-20T00:23:55;19.30;99.90
19435;DHT22;9853;50.848;4.108;2022-08-20T00:25:56;19.30;99.90
19435;DHT22;9853;50.848;4.108;2022-08-20T00:27:57;19.40;99.90
19435;DHT22;9853;50.848;4.108;2022-08-20T00:29:58;19.30;99.90
19435;DHT22;9853;50.848;4.108;2022-08-20T00:31:59;19.20;99.90
19435;DHT22;9853;50.848;4.108;2022-08-20T00:34:00;19.10;99.90
19435;DHT22;9853;50.848;4.108;2022-08-20T00:36:00;19.00;99.90
19435;DHT22;9853;50.848;4.108;2022-08-20T00:38:10;19.00;99.90
19435;DHT22;9853;50.848;4.108;2022-08-20T00:40:14;18.90;99.90
19435;DHT22;9853;50.848;4.108;2022-08-20T00:42:15;19.00;99.90
19435;DHT22;9853;50.848;4.108;2022-08-20T00:44:19;18.90;99.90
19435;DHT22;9853;50.848;4.108;2022-08-20T00:46:24;18.90;99.90
19435;DHT22;9853;50.848;4.108;2022-08-20T00:48:30;18.90;99.90
19435;DHT22;9853;50.848;4.108;2022-08-20T00:50:36;18.90;99.90
19435;DHT22;9853;50.848;4.108;2022-08-20T00:52:38;18.90;99.90
19435;DHT22;9853;50.848;4.108;2022-08-20T00:54:46;18.80;99.90
19435;DHT22;9853;50.848;4.108;2022-08-20T00:56:51;18.90;99.90
19435;DHT22;9853;50.848;4.108;2022-08-20T00:58:54;19.00;99.90
19435;DHT22;9853;50.848;4.108;2022-08-20T01:00:57;18.90;99.90
19435;DHT22;9853;50.848;4.108;2022-08-20T01:02:58;18.80;99.90
19435;DHT22;9853;50.848;4.108;2022-08-20T01:05:00;18.80;99.90
19435;DHT22;9853;50.848;4.108;2022-08-20T01:07:03;18.80;99.90
19435;DHT22;9853;50.848;4.108;2022-08-20T01:09:06;18.80;99.90
19435;DHT22;9853;50.848;4.108;2022-08-20T01:11:07;18.80;99.90
19435;DHT22;9853;50.848;4.108;2022-08-20T01:13:23;18.80;99.90
19435;DHT22;9853;50.848;4.108;2022-08-20T01:15:27;18.70;99.90
19435;DHT22;9853;50.848;4.108;2022-08-20T01:17:31;18.50;99.90
19435;DHT22;9853;50.848;4.108;2022-08-20T01:20:10;18.50;99.90
19435;DHT22;9853;50.848;4.108;2022-08-20T01:22:14;18.50;99.90
19435;DHT22;9853;50.848;4.108;2022-08-20T01:24:37;18.40;99.90
19435;DHT22;9853;50.848;4.108;2022-08-20T01:26:43;18.30;99.90
19435;DHT22;9853;50.848;4.108;2022-08-20T01:30:58;18.20;99.90
19435;DHT22;9853;50.848;4.108;2022-08-20T01:32:58;18.10;99.90
19435;DHT22;9853;50.848;4.108;2022-08-20T01:34:59;18.10;99.90
19435;DHT22;9853;50.848;4.108;2022-08-20T01:37:00;18.10;99.90
19435;DHT22;9853;50.848;4.108;2022-08-20T01:39:04;18.10;99.90
19435;DHT22;9853;50.848;4.108;2022-08-20T01:43:45;18.00;99.90
19435;DHT22;9853;50.848;4.108;2022-08-20T01:45:46;17.90;99.90
19435;DHT22;9853;50.848;4.108;2022-08-20T01:47:47;17.90;99.90
19435;DHT22;9853;50.848;4.108;2022-08-20T01:49:51;17.80;99.90
19435;DHT22;9853;50.848;4.108;2022-08-20T01:51:55;17.70;99.90
19435;DHT22;9853;50.848;4.108;2022-08-20T01:53:58;17.70;99.90
19435;DHT22;9853;50.848;4.108;2022-08-20T01:56:05;17.70;99.90
19435;DHT22;9853;50.848;4.108;2022-08-20T01:58:06;17.60;99.90
19435;DHT22;9853;50.848;4.108;2022-08-20T02:00:10;17.60;99.90
19435;DHT22;9853;50.848;4.108;2022-08-20T02:02:12;17.60;99.90
19435;DHT22;9853;50.848;4.108;2022-08-20T02:04:14;17.60;99.90
19435;DHT22;9853;50.848;4.108;2022-08-20T02:06:17;17.50;99.90
19435;DHT22;9853;50.848;4.108;2022-08-20T02:08:19;17.50;99.90
19435;DHT22;9853;50.848;4.108;2022-08-20T02:10:21;17.50;99.90
19435;DHT22;9853;50.848;4.108;2022-08-20T02:12:23;17.40;99.90
19435;DHT22;9853;50.848;4.108;2022-08-20T02:14:25;17.40;99.90
19435;DHT22;9853;50.848;4.108;2022-08-20T02:16:32;17.50;99.90
19435;DHT22;9853;50.848;4.108;2022-08-20T02:18:33;17.40;99.90
19435;DHT22;9853;50.848;4.108;2022-08-20T02:20:34;17.30;99.90
19435;DHT22;9853;50.848;4.108;2022-08-20T02:22:42;17.30;99.90
19435;DHT22;9853;50.848;4.108;2022-08-20T02:24:44;17.30;99.90
19435;DHT22;9853;50.848;4.108;2022-08-20T02:26:45;17.30;99.90
19435;DHT22;9853;50.848;4.108;2022-08-20T02:28:51;17.30;99.90
19435;DHT22;9853;50.848;4.108;2022-08-20T02:30:53;17.20;99.90
19435;DHT22;9853;50.848;4.108;2022-08-20T02:32:55;17.10;99.90
19435;DHT22;9853;50.848;4.108;2022-08-20T02:34:56;17.10;99.90
19435;DHT22;9853;50.848;4.108;2022-08-20T02:36:57;17.10;99.90
19435;DHT22;9853;50.848;4.108;2022-08-20T02:38:58;17.10;99.90
19435;DHT22;9853;50.848;4.108;2022-08-20T02:41:00;17.00;99.90
19435;DHT22;9853;50.848;4.108;2022-08-20T02:43:02;17.00;99.90
19435;DHT22;9853;50.848;4.108;2022-08-20T02:45:04;17.00;99.90
19435;DHT22;9853;50.848;4.108;2022-08-20T02:47:06;17.00;99.90
19435;DHT22;9853;50.848;4.108;2022-08-20T02:49:07;17.00;99.90
19435;DHT22;9853;50.848;4.108;2022-08-20T02:51:07;17.00;99.90
19435;DHT22;9853;50.848;4.108;2022-08-20T02:53:08;16.90;99.90
19435;DHT22;9853;50.848;4.108;2022-08-20T02:55:11;16.90;99.90
19435;DHT22;9853;50.848;4.108;2022-08-20T02:57:13;16.90;99.90
19435;DHT22;9853;50.848;4.108;2022-08-20T02:59:14;16.90;99.90
19435;DHT22;9853;50.848;4.108;2022-08-20T03:01:16;16.90;99.90
19435;DHT22;9853;50.848;4.108;2022-08-20T03:03:18;16.90;99.90
19435;DHT22;9853;50.848;4.108;2022-08-20T03:05:21;16.90;99.90
19435;DHT22;9853;50.848;4.108;2022-08-20T03:07:22;16.80;99.90
19435;DHT22;9853;50.848;4.108;2022-08-20T03:09:23;16.80;99.90
19435;DHT22;9853;50.848;4.108;2022-08-20T03:11:24;16.80;99.90
19435;DHT22;9853;50.848;4.108;2022-08-20T03:13:25;16.90;99.90
19435;DHT22;9853;50.848;4.108;2022-08-20T03:15:30;16.90;99.90
19435;DHT22;9853;50.848;4.108;2022-08-20T03:17:31;16.80;99.90
19435;DHT22;9853;50.848;4.108;2022-08-20T03:19:32;16.80;99.90
19435;DHT22;9853;50.848;4.108;2022-08-20T03:21:33;16.70;99.90
19435;DHT22;9853;50.848;4.108;2022-08-20T03:23:35;16.70;99.90
19435;DHT22;9853;50.848;4.108;2022-08-20T03:25:37;16.70;99.90
19435;DHT22;9853;50.848;4.108;2022-08-20T03:27:38;16.70;99.90
19435;DHT22;9853;50.848;4.108;2022-08-20T03:29:38;16.70;99.90
19435;DHT22;9853;50.848;4.108;2022-08-20T03:31:39;16.80;99.90
19435;DHT22;9853;50.848;4.108;2022-08-20T03:33:40;16.80;99.90
19435;DHT22;9853;50.848;4.108;2022-08-20T03:35:41;16.80;99.90
19435;DHT22;9853;50.848;4.108;2022-08-20T03:37:43;16.80;99.90
19435;DHT22;9853;50.848;4.108;2022-08-20T03:39:43;16.70;99.90
19435;DHT22;9853;50.848;4.108;2022-08-20T03:41:44;16.70;99.90
19435;DHT22;9853;50.848;4.108;2022-08-20T03:43:45;16.70;99.90
19435;DHT22;9853;50.848;4.108;2022-08-20T03:45:46;16.60;99.90
19435;DHT22;9853;50.848;4.108;2022-08-20T03:47:48;16.60;99.90
19435;DHT22;9853;50.848;4.108;2022-08-20T03:49:49;16.50;99.90
19435;DHT22;9853;50.848;4.108;2022-08-20T03:51:50;16.60;99.90
19435;DHT22;9853;50.848;4.108;2022-08-20T03:53:51;16.60;99.90
19435;DHT22;9853;50.848;4.108;2022-08-20T03:55:52;16.50;99.90
19435;DHT22;9853;50.848;4.108;2022-08-20T03:57:56;16.50;99.90
19435;DHT22;9853;50.848;4.108;2022-08-20T03:59:58;16.50;99.90
19435;DHT22;9853;50.848;4.108;2022-08-20T04:01:59;16.60;99.90
19435;DHT22;9853;50.848;4.108;2022-08-20T04:04:00;16.50;99.90
19435;DHT22;9853;50.848;4.108;2022-08-20T04:06:01;16.50;99.90
19435;DHT22;9853;50.848;4.108;2022-08-20T04:08:03;16.50;99.90
19435;DHT22;9853;50.848;4.108;2022-08-20T04:10:08;16.50;99.90
19435;DHT22;9853;50.848;4.108;2022-08-20T04:12:10;16.50;99.90
19435;DHT22;9853;50.848;4.108;2022-08-20T04:14:13;16.50;99.90
19435;DHT22;9853;50.848;4.108;2022-08-20T04:16:14;16.50;99.90
19435;DHT22;9853;50.848;4.108;2022-08-20T04:18:15;16.50;99.90
19435;DHT22;9853;50.848;4.108;2022-08-20T04:20:23;16.40;99.90
19435;DHT22;9853;50.848;4.108;2022-08-20T04:22:25;16.40;99.90
19435;DHT22;9853;50.848;4.108;2022-08-20T04:24:26;16.40;99.90
19435;DHT22;9853;50.848;4.108;2022-08-20T04:26:27;16.40;99.90
19435;DHT22;9853;50.848;4.108;2022-08-20T04:28:27;16.40;99.90
19435;DHT22;9853;50.848;4.108;2022-08-20T04:30:28;16.40;99.90
19435;DHT22;9853;50.848;4.108;2022-08-20T04:32:29;16.30;99.90
19435;DHT22;9853;50.848;4.108;2022-08-20T04:34:30;16.30;99.90
19435;DHT22;9853;50.848;4.108;2022-08-20T04:36:31;16.30;99.90
19435;DHT22;9853;50.848;4.108;2022-08-20T04:38:32;16.30;99.90
19435;DHT22;9853;50.848;4.108;2022-08-20T04:40:34;16.30;99.90
19435;DHT22;9853;50.848;4.108;2022-08-20T04:42:57;16.30;99.90
19435;DHT22;9853;50.848;4.108;2022-08-20T04:44:58;16.30;99.90
19435;DHT22;9853;50.848;4.108;2022-08-20T04:46:58;16.30;99.90
19435;DHT22;9853;50.848;4.108;2022-08-20T04:48:59;16.30;99.90
19435;DHT22;9853;50.848;4.108;2022-08-20T04:51:01;16.30;99.90
19435;DHT22;9853;50.848;4.108;2022-08-20T04:53:08;16.30;99.90
19435;DHT22;9853;50.848;4.108;2022-08-20T04:55:10;16.40;99.90
19435;DHT22;9853;50.848;4.108;2022-08-20T04:57:11;16.30;99.90
19435;DHT22;9853;50.848;4.108;2022-08-20T04:59:11;16.30;99.90
19435;DHT22;9853;50.848;4.108;2022-08-20T05:01:12;16.30;99.90
19435;DHT22;9853;50.848;4.108;2022-08-20T05:03:15;16.20;99.90
19435;DHT22;9853;50.848;4.108;2022-08-20T05:05:16;16.30;99.90
19435;DHT22;9853;50.848;4.108;2022-08-20T05:07:17;16.30;99.90
19435;DHT22;9853;50.848;4.108;2022-08-20T05:09:18;16.30;99.90
19435;DHT22;9853;50.848;4.108;2022-08-20T05:11:19;16.40;99.90
19435;DHT22;9853;50.848;4.108;2022-08-20T05:13:21;16.40;99.90
19435;DHT22;9853;50.848;4.108;2022-08-20T05:15:21;16.50;99.90
19435;DHT22;9853;50.848;4.108;2022-08-20T05:17:23;16.50;99.90
19435;DHT22;9853;50.848;4.108;2022-08-20T05:19:24;16.50;99.90
19435;DHT22;9853;50.848;4.108;2022-08-20T05:21:26;16.60;99.90
19435;DHT22;9853;50.848;4.108;2022-08-20T05:23:26;16.50;99.90
19435;DHT22;9853;50.848;4.108;2022-08-20T05:25:28;16.50;99.90
19435;DHT22;9853;50.848;4.108;2022-08-20T05:27:29;16.60;99.90
19435;DHT22;9853;50.848;4.108;2022-08-20T05:29:29;16.60;99.90
19435;DHT22;9853;50.848;4.108;2022-08-20T05:31:31;16.70;99.90
19435;DHT22;9853;50.848;4.108;2022-08-20T05:33:32;16.60;99.90
19435;DHT22;9853;50.848;4.108;2022-08-20T05:35:35;16.70;99.90
19435;DHT22;9853;50.848;4.108;2022-08-20T05:37:39;16.70;99.90
19435;DHT22;9853;50.848;4.108;2022-08-20T05:39:40;16.70;99.90
19435;DHT22;9853;50.848;4.108;2022-08-20T05:41:41;16.80;99.90
19435;DHT22;9853;50.848;4.108;2022-08-20T05:43:42;16.80;99.90
19435;DHT22;9853;50.848;4.108;2022-08-20T05:45:45;16.80;99.90
19435;DHT22;9853;50.848;4.108;2022-08-20T05:47:47;16.80;99.90
19435;DHT22;9853;50.848;4.108;2022-08-20T05:49:48;16.90;99.90
19435;DHT22;9853;50.848;4.108;2022-08-20T05:51:49;17.00;99.90
19435;DHT22;9853;50.848;4.108;2022-08-20T05:53:50;17.00;99.90
19435;DHT22;9853;50.848;4.108;2022-08-20T05:55:52;17.10;99.90
19435;DHT22;9853;50.848;4.108;2022-08-20T05:57:57;17.10;99.90
19435;DHT22;9853;50.848;4.108;2022-08-20T05:59:59;17.40;99.90
19435;DHT22;9853;50.848;4.108;2022-08-20T06:02:12;17.60;99.90
19435;DHT22;9853;50.848;4.108;2022-08-20T06:04:31;17.70;99.90
19435;DHT22;9853;50.848;4.108;2022-08-20T06:06:33;17.70;99.90
19435;DHT22;9853;50.848;4.108;2022-08-20T06:08:34;17.80;99.90
19435;DHT22;9853;50.848;4.108;2022-08-20T06:10:40;17.80;99.90
19435;DHT22;9853;50.848;4.108;2022-08-20T06:12:41;17.80;99.90
19435;DHT22;9853;50.848;4.108;2022-08-20T06:14:44;17.80;99.90
19435;DHT22;9853;50.848;4.108;2022-08-20T06:16:47;18.00;99.90
19435;DHT22;9853;50.848;4.108;2022-08-20T06:18:47;18.10;99.90
19435;DHT22;9853;50.848;4.108;2022-08-20T06:20:48;18.20;99.90
19435;DHT22;9853;50.848;4.108;2022-08-20T06:22:50;18.40;99.90
19435;DHT22;9853;50.848;4.108;2022-08-20T06:24:50;18.50;99.90
19435;DHT22;9853;50.848;4.108;2022-08-20T06:26:59;18.60;99.90
19435;DHT22;9853;50.848;4.108;2022-08-20T06:29:01;18.40;99.90
19435;DHT22;9853;50.848;4.108;2022-08-20T06:31:02;18.30;99.90
19435;DHT22;9853;50.848;4.108;2022-08-20T06:33:03;18.40;99.90
19435;DHT22;9853;50.848;4.108;2022-08-20T06:35:06;18.40;99.90
19435;DHT22;9853;50.848;4.108;2022-08-20T06:37:19;18.50;99.90
19435;DHT22;9853;50.848;4.108;2022-08-20T06:39:20;18.70;99.90
19435;DHT22;9853;50.848;4.108;2022-08-20T06:41:21;18.60;99.90
19435;DHT22;9853;50.848;4.108;2022-08-20T06:43:21;18.80;99.90
19435;DHT22;9853;50.848;4.108;2022-08-20T06:45:25;18.90;99.90
19435;DHT22;9853;50.848;4.108;2022-08-20T06:47:26;19.00;99.90
19435;DHT22;9853;50.848;4.108;2022-08-20T06:49:27;19.10;99.90
19435;DHT22;9853;50.848;4.108;2022-08-20T06:51:28;19.20;99.90
19435;DHT22;9853;50.848;4.108;2022-08-20T06:53:29;19.30;99.90
19435;DHT22;9853;50.848;4.108;2022-08-20T06:55:30;19.40;99.90
19435;DHT22;9853;50.848;4.108;2022-08-20T06:57:32;19.40;99.90
19435;DHT22;9853;50.848;4.108;2022-08-20T06:59:34;19.60;99.90
19435;DHT22;9853;50.848;4.108;2022-08-20T07:01:36;19.60;99.90
19435;DHT22;9853;50.848;4.108;2022-08-20T07:03:40;19.80;99.90
19435;DHT22;9853;50.848;4.108;2022-08-20T07:05:43;19.90;99.90
19435;DHT22;9853;50.848;4.108;2022-08-20T07:07:46;20.10;99.90
19435;DHT22;9853;50.848;4.108;2022-08-20T07:09:47;20.30;99.90
19435;DHT22;9853;50.848;4.108;2022-08-20T07:11:48;20.50;99.90
19435;DHT22;9853;50.848;4.108;2022-08-20T07:13:48;20.50;99.90
19435;DHT22;9853;50.848;4.108;2022-08-20T07:15:49;20.80;99.90
19435;DHT22;9853;50.848;4.108;2022-08-20T07:17:58;21.60;99.90
19435;DHT22;9853;50.848;4.108;2022-08-20T07:20:04;23.00;99.90
19435;DHT22;9853;50.848;4.108;2022-08-20T07:22:05;24.90;99.90
19435;DHT22;9853;50.848;4.108;2022-08-20T07:24:06;26.40;99.90
19435;DHT22;9853;50.848;4.108;2022-08-20T07:26:09;27.80;99.90
19435;DHT22;9853;50.848;4.108;2022-08-20T07:28:15;28.70;99.90
19435;DHT22;9853;50.848;4.108;2022-08-20T07:30:25;29.80;99.90
19435;DHT22;9853;50.848;4.108;2022-08-20T07:32:45;30.30;99.90
19435;DHT22;9853;50.848;4.108;2022-08-20T07:34:46;30.30;99.90
19435;DHT22;9853;50.848;4.108;2022-08-20T07:36:46;30.50;99.90
19435;DHT22;9853;50.848;4.108;2022-08-20T07:38:48;31.40;99.90
19435;DHT22;9853;50.848;4.108;2022-08-20T07:41:03;32.20;99.90
19435;DHT22;9853;50.848;4.108;2022-08-20T07:43:04;32.30;99.90
19435;DHT22;9853;50.848;4.108;2022-08-20T07:45:08;32.40;99.90
19435;DHT22;9853;50.848;4.108;2022-08-20T07:47:10;31.80;99.90
19435;DHT22;9853;50.848;4.108;2022-08-20T07:49:11;31.60;99.90
19435;DHT22;9853;50.848;4.108;2022-08-20T07:51:13;31.40;99.90
19435;DHT22;9853;50.848;4.108;2022-08-20T07:53:16;32.20;99.90
19435;DHT22;9853;50.848;4.108;2022-08-20T07:55:18;32.50;99.90
19435;DHT22;9853;50.848;4.108;2022-08-20T07:57:20;32.70;99.90
19435;DHT22;9853;50.848;4.108;2022-08-20T07:59:21;33.00;99.90
19435;DHT22;9853;50.848;4.108;2022-08-20T08:01:26;33.60;99.90
19435;DHT22;9853;50.848;4.108;2022-08-20T08:03:27;32.90;99.90
19435;DHT22;9853;50.848;4.108;2022-08-20T08:05:29;32.70;99.90
19435;DHT22;9853;50.848;4.108;2022-08-20T08:07:32;32.70;99.90
19435;DHT22;9853;50.848;4.108;2022-08-20T08:09:33;32.90;99.90
19435;DHT22;9853;50.848;4.108;2022-08-20T08:11:38;33.00;99.90
19435;DHT22;9853;50.848;4.108;2022-08-20T08:13:40;33.40;99.90
19435;DHT22;9853;50.848;4.108;2022-08-20T08:15:46;33.50;99.90
19435;DHT22;9853;50.848;4.108;2022-08-20T08:17:48;33.30;99.90
19435;DHT22;9853;50.848;4.108;2022-08-20T08:19:50;33.60;99.90
19435;DHT22;9853;50.848;4.108;2022-08-20T08:21:51;34.10;99.90
19435;DHT22;9853;50.848;4.108;2022-08-20T08:23:52;33.80;99.90
19435;DHT22;9853;50.848;4.108;2022-08-20T08:25:52;33.50;99.90
19435;DHT22;9853;50.848;4.108;2022-08-20T08:27:53;33.50;99.90
19435;DHT22;9853;50.848;4.108;2022-08-20T08:29:54;34.10;99.90
19435;DHT22;9853;50.848;4.108;2022-08-20T08:31:55;33.30;99.90
19435;DHT22;9853;50.848;4.108;2022-08-20T08:33:56;32.00;99.90
19435;DHT22;9853;50.848;4.108;2022-08-20T08:36:06;32.20;99.90
19435;DHT22;9853;50.848;4.108;2022-08-20T08:38:09;30.80;99.90
19435;DHT22;9853;50.848;4.108;2022-08-20T08:40:09;30.70;99.90
19435;DHT22;9853;50.848;4.108;2022-08-20T08:44:41;30.30;99.90
19435;DHT22;9853;50.848;4.108;2022-08-20T08:46:44;30.20;99.90
19435;DHT22;9853;50.848;4.108;2022-08-20T08:48:49;30.30;99.90
19435;DHT22;9853;50.848;4.108;2022-08-20T08:50:52;30.30;99.90
19435;DHT22;9853;50.848;4.108;2022-08-20T08:52:59;30.30;99.90
19435;DHT22;9853;50.848;4.108;2022-08-20T08:55:10;30.70;99.90
19435;DHT22;9853;50.848;4.108;2022-08-20T08:57:11;30.20;99.90
19435;DHT22;9853;50.848;4.108;2022-08-20T08:59:12;29.60;99.90
19435;DHT22;9853;50.848;4.108;2022-08-20T09:01:17;29.70;99.90
19435;DHT22;9853;50.848;4.108;2022-08-20T09:03:27;28.90;99.90
19435;DHT22;9853;50.848;4.108;2022-08-20T09:05:45;27.80;99.90
19435;DHT22;9853;50.848;4.108;2022-08-20T09:07:49;26.80;99.90
19435;DHT22;9853;50.848;4.108;2022-08-20T09:09:51;26.50;99.90
19435;DHT22;9853;50.848;4.108;2022-08-20T09:11:56;26.50;99.90
19435;DHT22;9853;50.848;4.108;2022-08-20T09:14:01;26.20;99.90
19435;DHT22;9853;50.848;4.108;2022-08-20T09:16:02;26.30;99.90
19435;DHT22;9853;50.848;4.108;2022-08-20T09:18:03;26.90;99.90
19435;DHT22;9853;50.848;4.108;2022-08-20T09:20:04;27.10;99.90
19435;DHT22;9853;50.848;4.108;2022-08-20T09:22:13;27.40;99.90
19435;DHT22;9853;50.848;4.108;2022-08-20T09:24:14;27.90;99.90
19435;DHT22;9853;50.848;4.108;2022-08-20T09:26:15;27.80;99.90
19435;DHT22;9853;50.848;4.108;2022-08-20T09:28:16;27.90;99.90
19435;DHT22;9853;50.848;4.108;2022-08-20T09:30:16;27.40;99.90
19435;DHT22;9853;50.848;4.108;2022-08-20T09:32:20;27.50;99.90
19435;DHT22;9853;50.848;4.108;2022-08-20T09:34:21;27.50;99.90
19435;DHT22;9853;50.848;4.108;2022-08-20T09:36:22;27.60;99.90
19435;DHT22;9853;50.848;4.108;2022-08-20T09:38:22;27.40;99.90
19435;DHT22;9853;50.848;4.108;2022-08-20T09:40:23;27.70;99.90
19435;DHT22;9853;50.848;4.108;2022-08-20T09:42:29;27.70;99.90
19435;DHT22;9853;50.848;4.108;2022-08-20T09:44:30;28.10;99.90
19435;DHT22;9853;50.848;4.108;2022-08-20T09:46:31;28.40;99.90
19435;DHT22;9853;50.848;4.108;2022-08-20T09:48:32;27.10;99.90
19435;DHT22;9853;50.848;4.108;2022-08-20T09:50:34;27.40;99.90
19435;DHT22;9853;50.848;4.108;2022-08-20T09:52:38;28.00;99.90
19435;DHT22;9853;50.848;4.108;2022-08-20T09:54:40;27.80;99.90
19435;DHT22;9853;50.848;4.108;2022-08-20T09:56:41;28.50;99.90
19435;DHT22;9853;50.848;4.108;2022-08-20T09:58:46;28.90;99.90
19435;DHT22;9853;50.848;4.108;2022-08-20T10:00:49;29.20;99.90
19435;DHT22;9853;50.848;4.108;2022-08-20T10:02:49;29.60;99.90
19435;DHT22;9853;50.848;4.108;2022-08-20T10:04:51;29.80;99.90
19435;DHT22;9853;50.848;4.108;2022-08-20T10:06:51;30.10;99.90
19435;DHT22;9853;50.848;4.108;2022-08-20T10:08:52;30.40;99.90
19435;DHT22;9853;50.848;4.108;2022-08-20T10:10:55;30.30;99.90
19435;DHT22;9853;50.848;4.108;2022-08-20T10:12:56;29.90;99.90
19435;DHT22;9853;50.848;4.108;2022-08-20T10:14:56;28.90;99.90
19435;DHT22;9853;50.848;4.108;2022-08-20T10:16:59;27.80;99.90
19435;DHT22;9853;50.848;4.108;2022-08-20T10:19:00;27.20;99.90
19435;DHT22;9853;50.848;4.108;2022-08-20T10:21:01;26.60;99.90
19435;DHT22;9853;50.848;4.108;2022-08-20T10:23:02;26.20;99.90
19435;DHT22;9853;50.848;4.108;2022-08-20T10:25:04;25.50;99.90
19435;DHT22;9853;50.848;4.108;2022-08-20T10:27:05;25.40;99.90
19435;DHT22;9853;50.848;4.108;2022-08-20T10:29:06;25.30;99.90
19435;DHT22;9853;50.848;4.108;2022-08-20T10:31:09;25.60;99.90
19435;DHT22;9853;50.848;4.108;2022-08-20T10:33:10;25.80;99.90
19435;DHT22;9853;50.848;4.108;2022-08-20T10:35:10;25.90;99.90
19435;DHT22;9853;50.848;4.108;2022-08-20T10:37:20;26.00;99.90
19435;DHT22;9853;50.848;4.108;2022-08-20T10:39:21;26.30;99.90
19435;DHT22;9853;50.848;4.108;2022-08-20T10:41:22;26.50;99.90
19435;DHT22;9853;50.848;4.108;2022-08-20T10:43:23;26.40;99.90
19435;DHT22;9853;50.848;4.108;2022-08-20T10:45:24;26.50;99.90
19435;DHT22;9853;50.848;4.108;2022-08-20T10:47:28;26.30;99.90
19435;DHT22;9853;50.848;4.108;2022-08-20T10:49:33;26.30;99.90
19435;DHT22;9853;50.848;4.108;2022-08-20T10:51:33;26.50;99.90
19435;DHT22;9853;50.848;4.108;2022-08-20T10:53:34;26.50;99.90
19435;DHT22;9853;50.848;4.108;2022-08-20T10:55:35;26.40;99.90
19435;DHT22;9853;50.848;4.108;2022-08-20T10:57:38;26.00;99.90
19435;DHT22;9853;50.848;4.108;2022-08-20T10:59:40;25.80;99.90
19435;DHT22;9853;50.848;4.108;2022-08-20T11:01:41;25.90;99.90
19435;DHT22;9853;50.848;4.108;2022-08-20T11:03:42;25.80;99.90
19435;DHT22;9853;50.848;4.108;2022-08-20T11:05:42;25.70;99.90
19435;DHT22;9853;50.848;4.108;2022-08-20T11:07:44;25.80;99.90
19435;DHT22;9853;50.848;4.108;2022-08-20T11:09:46;25.60;99.90
19435;DHT22;9853;50.848;4.108;2022-08-20T11:11:47;25.70;99.90
19435;DHT22;9853;50.848;4.108;2022-08-20T11:13:48;25.40;99.90
19435;DHT22;9853;50.848;4.108;2022-08-20T11:15:49;25.00;99.90
19435;DHT22;9853;50.848;4.108;2022-08-20T11:17:50;24.90;99.90
19435;DHT22;9853;50.848;4.108;2022-08-20T11:19:51;24.90;99.90
19435;DHT22;9853;50.848;4.108;2022-08-20T11:21:52;25.20;99.90
19435;DHT22;9853;50.848;4.108;2022-08-20T11:23:53;25.20;99.90
19435;DHT22;9853;50.848;4.108;2022-08-20T11:25:55;25.30;99.90
19435;DHT22;9853;50.848;4.108;2022-08-20T11:27:57;25.40;99.90
19435;DHT22;9853;50.848;4.108;2022-08-20T11:29:58;25.60;99.90
19435;DHT22;9853;50.848;4.108;2022-08-20T11:31:59;25.70;99.90
19435;DHT22;9853;50.848;4.108;2022-08-20T11:34:00;25.80;99.90
19435;DHT22;9853;50.848;4.108;2022-08-20T11:36:00;26.10;99.90
19435;DHT22;9853;50.848;4.108;2022-08-20T11:38:01;26.20;99.90
19435;DHT22;9853;50.848;4.108;2022-08-20T11:40:02;25.80;99.90
19435;DHT22;9853;50.848;4.108;2022-08-20T11:42:04;25.50;99.90
19435;DHT22;9853;50.848;4.108;2022-08-20T11:44:06;25.60;99.90
19435;DHT22;9853;50.848;4.108;2022-08-20T11:46:06;25.30;99.90
19435;DHT22;9853;50.848;4.108;2022-08-20T11:48:07;24.80;99.90
19435;DHT22;9853;50.848;4.108;2022-08-20T11:50:13;24.70;99.90
19435;DHT22;9853;50.848;4.108;2022-08-20T11:52:14;25.00;99.90
19435;DHT22;9853;50.848;4.108;2022-08-20T11:54:15;25.40;99.90
19435;DHT22;9853;50.848;4.108;2022-08-20T11:56:16;25.30;99.90
19435;DHT22;9853;50.848;4.108;2022-08-20T11:58:18;25.50;99.90
19435;DHT22;9853;50.848;4.108;2022-08-20T12:00:21;25.50;99.90
19435;DHT22;9853;50.848;4.108;2022-08-20T12:02:24;25.60;99.90
19435;DHT22;9853;50.848;4.108;2022-08-20T12:04:25;25.60;99.90
19435;DHT22;9853;50.848;4.108;2022-08-20T12:06:26;25.50;99.90
19435;DHT22;9853;50.848;4.108;2022-08-20T12:08:27;25.10;99.90
19435;DHT22;9853;50.848;4.108;2022-08-20T12:10:29;25.00;99.90
19435;DHT22;9853;50.848;4.108;2022-08-20T12:12:30;25.10;99.90
19435;DHT22;9853;50.848;4.108;2022-08-20T12:14:31;25.20;99.90
19435;DHT22;9853;50.848;4.108;2022-08-20T12:16:32;25.50;99.90
19435;DHT22;9853;50.848;4.108;2022-08-20T12:18:33;25.30;99.90
19435;DHT22;9853;50.848;4.108;2022-08-20T12:20:35;25.60;99.90
19435;DHT22;9853;50.848;4.108;2022-08-20T12:22:36;25.90;99.90
19435;DHT22;9853;50.848;4.108;2022-08-20T12:24:37;26.30;99.90
19435;DHT22;9853;50.848;4.108;2022-08-20T12:26:38;26.10;99.90
19435;DHT22;9853;50.848;4.108;2022-08-20T12:28:39;26.10;99.90
19435;DHT22;9853;50.848;4.108;2022-08-20T12:30:40;26.10;99.90
19435;DHT22;9853;50.848;4.108;2022-08-20T12:32:41;26.00;99.90
19435;DHT22;9853;50.848;4.108;2022-08-20T12:34:42;25.90;99.90
19435;DHT22;9853;50.848;4.108;2022-08-20T12:36:42;26.00;99.90
19435;DHT22;9853;50.848;4.108;2022-08-20T12:38:43;26.10;99.90
19435;DHT22;9853;50.848;4.108;2022-08-20T12:40:44;26.00;99.90
19435;DHT22;9853;50.848;4.108;2022-08-20T12:42:45;26.10;99.90
19435;DHT22;9853;50.848;4.108;2022-08-20T12:44:46;26.10;99.90
19435;DHT22;9853;50.848;4.108;2022-08-20T12:46:47;26.30;99.90
19435;DHT22;9853;50.848;4.108;2022-08-20T12:48:47;26.40;99.90
19435;DHT22;9853;50.848;4.108;2022-08-20T12:50:48;26.50;99.90
19435;DHT22;9853;50.848;4.108;2022-08-20T12:52:49;26.40;99.90
19435;DHT22;9853;50.848;4.108;2022-08-20T12:54:52;26.10;99.90
19435;DHT22;9853;50.848;4.108;2022-08-20T12:56:53;25.70;99.90
19435;DHT22;9853;50.848;4.108;2022-08-20T12:58:54;26.00;99.90
19435;DHT22;9853;50.848;4.108;2022-08-20T13:00:54;26.10;99.90
19435;DHT22;9853;50.848;4.108;2022-08-20T13:02:57;26.30;99.90
19435;DHT22;9853;50.848;4.108;2022-08-20T13:04:58;26.30;99.90
19435;DHT22;9853;50.848;4.108;2022-08-20T13:07:00;26.10;99.90
19435;DHT22;9853;50.848;4.108;2022-08-20T13:09:01;26.10;99.90
19435;DHT22;9853;50.848;4.108;2022-08-20T13:11:02;25.90;99.90
19435;DHT22;9853;50.848;4.108;2022-08-20T13:13:03;25.70;99.90